createdAt,value
2017-03-03T13:14:31.293Z,23.8
2017-03-03T13:17:03.800Z,23.9
2017-03-03T13:19:36.287Z,24.3
2017-03-03T13:22:08.785Z,24.1
2017-03-03T13:24:41.729Z,23.8
2017-03-03T13:27:14.206Z,23.6
2017-03-03T13:29:47.101Z,23.4
2017-03-03T13:32:19.606Z,23.3
2017-03-03T13:34:52.077Z,23.2
2017-03-03T13:37:24.568Z,23.1
2017-03-03T13:39:57.067Z,23
2017-03-03T13:42:29.545Z,22.9
2017-03-03T13:45:02.501Z,22.8
2017-03-03T13:47:35.422Z,22.8
2017-03-03T13:50:07.910Z,22.8
2017-03-03T13:52:40.806Z,22.9
2017-03-03T13:55:14.576Z,22.9
2017-03-03T13:57:47.090Z,22.9
2017-03-03T14:00:19.563Z,22.9
2017-03-03T14:02:52.042Z,22.9
2017-03-03T14:05:24.962Z,22.9
2017-03-03T14:07:57.465Z,22.8
2017-03-03T14:10:30.393Z,22.7
2017-03-03T14:13:02.903Z,22.7
2017-03-03T14:15:35.388Z,22.7
2017-03-03T14:18:07.893Z,22.6
2017-03-03T14:20:40.381Z,22.6
2017-03-03T14:23:12.874Z,22.6
2017-03-03T14:25:45.780Z,22.5
2017-03-03T14:28:18.277Z,22.5
2017-03-03T14:30:51.201Z,22.6
2017-03-03T14:33:24.100Z,22.6
2017-03-03T14:35:56.580Z,22.7
2017-03-03T14:38:29.062Z,22.8
2017-03-03T14:41:02.409Z,22.9
2017-03-03T14:43:35.381Z,22.9
2017-03-03T14:46:07.871Z,23
2017-03-03T14:48:40.373Z,23
2017-03-03T14:51:13.280Z,22.9
2017-03-03T14:53:45.768Z,22.9
2017-03-03T14:56:18.281Z,22.8
2017-03-03T14:58:50.747Z,22.7
2017-03-03T15:01:23.637Z,22.7
2017-03-03T15:03:56.127Z,22.6
2017-03-03T15:06:28.615Z,22.5
2017-03-03T15:09:01.534Z,22.4
2017-03-03T15:11:34.024Z,22.3
2017-03-03T15:14:07.003Z,22.3
2017-03-03T15:16:39.470Z,22.2
2017-03-03T15:19:12.411Z,22.2
2017-03-03T15:21:44.890Z,22.2
2017-03-03T15:24:17.380Z,22.1
2017-03-03T15:26:50.271Z,22.1
2017-03-03T15:29:22.748Z,22.2
2017-03-03T15:31:55.666Z,22.3
2017-03-03T15:34:28.147Z,22.5
2017-03-03T15:37:00.612Z,22.6
2017-03-03T15:39:33.128Z,22.6
2017-03-03T15:42:05.604Z,22.7
2017-03-03T15:44:38.123Z,22.7
2017-03-03T15:47:10.589Z,22.8
2017-03-03T15:49:43.069Z,22.8
2017-03-03T15:52:15.562Z,22.8
2017-03-03T15:54:48.081Z,22.9
2017-03-03T15:57:20.563Z,22.9
2017-03-03T15:59:53.048Z,22.9
2017-03-03T16:02:25.946Z,22.9
2017-03-03T16:04:58.450Z,22.8
2017-03-03T16:07:32.430Z,22.7
2017-03-03T16:10:04.911Z,22.7
2017-03-03T16:12:37.847Z,22.6
2017-03-03T16:15:10.318Z,22.6
2017-03-03T16:17:43.238Z,22.6
2017-03-03T16:20:15.727Z,22.6
2017-03-03T16:22:48.217Z,22.7
2017-03-03T16:25:20.715Z,22.7
2017-03-03T16:27:53.195Z,22.7
2017-03-03T16:30:25.696Z,22.7
2017-03-03T16:32:58.197Z,22.7
2017-03-03T16:35:30.703Z,22.8
2017-03-03T16:38:03.606Z,22.8
2017-03-03T16:40:36.942Z,22.8
2017-03-03T16:43:09.450Z,22.8
2017-03-03T16:45:42.156Z,22.8
2017-03-03T16:48:15.072Z,22.8
2017-03-03T16:50:47.569Z,22.9
2017-03-03T16:53:20.039Z,23
2017-03-03T16:55:52.546Z,23
2017-03-03T16:58:25.043Z,23
2017-03-03T17:00:57.547Z,23.1
2017-03-03T17:03:30.457Z,23.1
2017-03-03T17:06:02.956Z,23.1
2017-03-03T17:08:35.434Z,23.1
2017-03-03T17:11:07.936Z,23.1
2017-03-03T17:13:40.426Z,23.1
2017-03-03T17:16:12.954Z,23
2017-03-03T17:18:45.429Z,23
2017-03-03T17:21:17.964Z,23
2017-03-03T17:23:50.450Z,23
2017-03-03T17:26:22.943Z,23
2017-03-03T17:28:55.432Z,22.9
2017-03-03T17:31:27.927Z,22.9
2017-03-03T17:34:00.860Z,22.9
2017-03-03T17:36:33.353Z,22.9
2017-03-03T17:39:05.840Z,22.9
2017-03-03T17:41:38.313Z,22.9
2017-03-03T17:44:10.811Z,22.9
2017-03-03T17:46:43.292Z,22.8
2017-03-03T17:49:15.802Z,22.8
2017-03-03T17:51:48.272Z,22.8
2017-03-03T17:54:20.805Z,22.8
2017-03-03T17:56:53.286Z,22.8
2017-03-03T17:59:26.236Z,22.9
2017-03-03T18:01:58.694Z,22.9
2017-03-03T18:04:31.624Z,22.9
2017-03-03T18:07:04.106Z,22.9
2017-03-03T18:09:36.584Z,22.9
2017-03-03T18:12:09.052Z,22.9
2017-03-03T18:14:41.555Z,22.9
2017-03-03T18:17:14.080Z,23
2017-03-03T18:19:47.050Z,23
2017-03-03T18:22:19.958Z,23
2017-03-03T18:24:52.430Z,23
2017-03-03T18:27:25.371Z,23
2017-03-03T18:29:57.853Z,23
2017-03-03T18:32:30.348Z,23
2017-03-03T18:35:02.844Z,23
2017-03-03T18:37:35.335Z,23
2017-03-03T18:40:07.812Z,23
2017-03-03T18:42:40.741Z,23
2017-03-03T18:45:13.247Z,23
2017-03-03T18:47:45.744Z,23
2017-03-03T18:50:18.238Z,23
2017-03-03T18:52:50.719Z,23
2017-03-03T18:55:23.227Z,23
2017-03-03T18:57:56.567Z,23
2017-03-03T19:00:29.050Z,23
2017-03-03T19:03:01.949Z,23
2017-03-03T19:05:34.874Z,23
2017-03-03T19:08:07.809Z,23
2017-03-03T19:10:41.137Z,22.9
2017-03-03T19:13:14.065Z,22.9
2017-03-03T19:15:47.010Z,22.9
2017-03-03T19:18:19.504Z,23
2017-03-03T19:20:52.005Z,23
2017-03-03T19:23:24.469Z,23.1
2017-03-03T19:25:56.965Z,23.1
2017-03-03T19:28:29.871Z,23.1
2017-03-03T19:31:02.815Z,23.1
2017-03-03T19:33:35.309Z,23.2
2017-03-03T19:36:07.832Z,23.2
2017-03-03T19:38:40.318Z,23.2
2017-03-03T19:41:12.807Z,23.2
2017-03-03T19:43:45.288Z,23.2
2017-03-03T19:46:17.786Z,23.1
2017-03-03T19:48:50.265Z,23.1
2017-03-03T19:51:22.769Z,23.1
2017-03-03T19:53:55.260Z,23.1
2017-03-03T19:56:28.156Z,23
2017-03-03T19:59:00.643Z,23.1
2017-03-03T20:01:33.558Z,23
2017-03-03T20:04:06.023Z,23
2017-03-03T20:06:38.545Z,23
2017-03-03T20:09:11.039Z,23
2017-03-03T20:11:43.536Z,23
2017-03-03T20:14:16.458Z,22.9
2017-03-03T20:16:49.393Z,23
2017-03-03T20:19:21.899Z,22.9
2017-03-03T20:21:54.364Z,22.9
2017-03-03T20:24:26.848Z,22.9
2017-03-03T20:26:59.340Z,22.9
2017-03-03T20:29:31.822Z,22.9
2017-03-03T20:32:04.291Z,22.9
2017-03-03T20:34:36.776Z,22.9
2017-03-03T20:37:09.494Z,22.9
2017-03-03T20:39:42.026Z,22.9
2017-03-03T20:42:14.936Z,22.9
2017-03-03T20:44:47.841Z,22.9
2017-03-03T20:47:20.321Z,23
2017-03-03T20:49:53.847Z,23
2017-03-03T20:52:26.323Z,23
2017-03-03T20:54:58.794Z,23
2017-03-03T20:57:31.286Z,23
2017-03-03T21:00:03.766Z,23.1
2017-03-03T21:02:36.248Z,23
2017-03-03T21:05:09.291Z,23.1
2017-03-03T21:07:42.223Z,23
2017-03-03T21:10:14.719Z,23.1
2017-03-03T21:12:47.643Z,23.1
2017-03-03T21:15:20.147Z,23.1
2017-03-03T21:17:52.631Z,23.1
2017-03-03T21:20:25.968Z,23
2017-03-03T21:22:58.862Z,23
2017-03-03T21:25:31.777Z,23
2017-03-03T21:28:04.247Z,23
2017-03-03T21:30:36.762Z,23
2017-03-03T21:33:09.282Z,23
2017-03-03T21:35:41.753Z,23
2017-03-03T21:38:14.851Z,23
2017-03-03T21:40:47.766Z,23
2017-03-03T21:43:20.675Z,23
2017-03-03T21:45:53.174Z,23
2017-03-03T21:48:26.092Z,23
2017-03-03T21:50:58.606Z,23
2017-03-03T21:53:31.510Z,23
2017-03-03T21:56:04.306Z,22.9
2017-03-03T21:58:36.804Z,22.9
2017-03-03T22:01:09.296Z,22.9
2017-03-03T22:03:42.633Z,22.9
2017-03-03T22:06:15.138Z,22.9
2017-03-03T22:08:48.044Z,23
2017-03-03T22:11:20.561Z,23
2017-03-03T22:13:53.069Z,22.9
2017-03-03T22:16:25.566Z,23
2017-03-03T22:18:58.056Z,23
2017-03-03T22:21:30.554Z,23
2017-03-03T22:24:03.458Z,23
2017-03-03T22:26:35.960Z,23
2017-03-03T22:29:08.442Z,23
2017-03-03T22:31:41.349Z,23
2017-03-03T22:34:13.838Z,23
2017-03-03T22:36:46.326Z,23
2017-03-03T22:39:18.791Z,23
2017-03-03T22:41:52.341Z,23
2017-03-03T22:44:24.857Z,23
2017-03-03T22:46:57.322Z,23
2017-03-03T22:49:29.810Z,23
2017-03-03T22:52:02.357Z,23
2017-03-03T22:54:34.843Z,23
2017-03-03T22:57:07.337Z,22.9
2017-03-03T22:59:40.226Z,22.9
2017-03-03T23:02:13.128Z,22.9
2017-03-03T23:04:45.605Z,22.9
2017-03-03T23:07:18.094Z,23
2017-03-03T23:09:50.587Z,22.9
2017-03-03T23:12:23.085Z,22.9
2017-03-03T23:14:56.014Z,22.9
2017-03-03T23:17:28.490Z,22.9
2017-03-03T23:20:00.977Z,22.9
2017-03-03T23:22:33.906Z,22.9
2017-03-03T23:25:06.382Z,22.9
2017-03-03T23:27:39.326Z,22.9
2017-03-03T23:30:11.803Z,22.9
2017-03-03T23:32:44.302Z,22.9
2017-03-03T23:35:16.793Z,23
2017-03-03T23:37:49.274Z,23
2017-03-03T23:40:22.199Z,23
2017-03-03T23:42:54.677Z,23
2017-03-03T23:45:27.166Z,23
2017-03-03T23:47:59.645Z,23
2017-03-03T23:50:32.125Z,23
2017-03-03T23:53:04.622Z,23
2017-03-03T23:55:37.102Z,23
2017-03-03T23:58:09.575Z,23
